sensor_id;sensor_type;location;lat;lon;timestamp;pressure;altitude;pressure_sealevel;temperature;humidity
12358;BME280;6243;51.244;6.774;2022-07-22T00:00:00;153632.91;;;24.39;78.79
12358;BME280;6243;51.244;6.774;2022-07-22T00:02:26;153648.31;;;24.45;77.65
12358;BME280;6243;51.244;6.774;2022-07-22T00:04:52;153679.16;;;24.57;76.65
12358;BME280;6243;51.244;6.774;2022-07-22T00:07:17;153645.72;;;24.44;77.65
12358;BME280;6243;51.244;6.774;2022-07-22T00:09:43;153613.63;;;24.31;78.72
12358;BME280;6243;51.244;6.774;2022-07-22T00:12:08;153657.28;;;24.48;77.71
12358;BME280;6243;51.244;6.774;2022-07-22T00:14:34;153623.91;;;24.35;78.42
12358;BME280;6243;51.244;6.774;2022-07-22T00:17:01;153677.88;;;24.56;78.27
12358;BME280;6243;51.244;6.774;2022-07-22T00:19:26;153648.31;;;24.45;78.40
12358;BME280;6243;51.244;6.774;2022-07-22T00:21:52;153645.72;;;24.44;77.53
12358;BME280;6243;51.244;6.774;2022-07-22T00:24:18;153626.50;;;24.36;78.89
12358;BME280;6243;51.244;6.774;2022-07-22T00:26:44;153635.47;;;24.40;77.89
12358;BME280;6243;51.244;6.774;2022-07-22T00:29:09;153621.38;;;24.34;78.55
12358;BME280;6243;51.244;6.774;2022-07-22T00:31:35;153621.38;;;24.34;79.23
12358;BME280;6243;51.244;6.774;2022-07-22T00:34:02;153602.09;;;24.27;79.69
12358;BME280;6243;51.244;6.774;2022-07-22T00:36:28;153517.25;;;23.93;82.58
12358;BME280;6243;51.244;6.774;2022-07-22T00:38:53;153591.81;;;24.23;80.62
12358;BME280;6243;51.244;6.774;2022-07-22T00:41:19;153617.47;;;24.33;79.86
12358;BME280;6243;51.244;6.774;2022-07-22T00:43:49;153629.03;;;24.37;79.20
12358;BME280;6243;51.244;6.774;2022-07-22T00:46:14;153545.53;;;24.05;82.59
12358;BME280;6243;51.244;6.774;2022-07-22T00:48:40;153604.63;;;24.28;81.52
12358;BME280;6243;51.244;6.774;2022-07-22T00:51:07;153634.16;;;24.39;81.50
12358;BME280;6243;51.244;6.774;2022-07-22T00:53:33;153657.28;;;24.48;80.06
12358;BME280;6243;51.244;6.774;2022-07-22T00:55:59;153659.88;;;24.49;80.91
12358;BME280;6243;51.244;6.774;2022-07-22T00:58:25;153604.63;;;24.28;81.07
12358;BME280;6243;51.244;6.774;2022-07-22T01:00:51;153598.25;;;24.25;82.87
12358;BME280;6243;51.244;6.774;2022-07-22T01:03:16;153616.22;;;24.32;82.99
12358;BME280;6243;51.244;6.774;2022-07-22T01:05:42;153613.63;;;24.31;82.56
12358;BME280;6243;51.244;6.774;2022-07-22T01:08:09;153607.22;;;24.29;84.15
12358;BME280;6243;51.244;6.774;2022-07-22T01:10:35;153631.63;;;24.38;82.95
12358;BME280;6243;51.244;6.774;2022-07-22T01:13:00;153652.16;;;24.46;82.41
12358;BME280;6243;51.244;6.774;2022-07-22T01:15:26;153640.59;;;24.42;81.92
12358;BME280;6243;51.244;6.774;2022-07-22T01:17:51;153591.81;;;24.23;83.17
12358;BME280;6243;51.244;6.774;2022-07-22T01:20:18;153593.06;;;24.23;83.14
12358;BME280;6243;51.244;6.774;2022-07-22T01:22:44;153608.50;;;24.29;81.67
12358;BME280;6243;51.244;6.774;2022-07-22T01:25:09;153559.69;;;24.10;83.97
12358;BME280;6243;51.244;6.774;2022-07-22T01:27:35;153603.38;;;24.27;81.97
12358;BME280;6243;51.244;6.774;2022-07-22T01:30:01;153607.22;;;24.29;81.68
12358;BME280;6243;51.244;6.774;2022-07-22T01:32:26;153623.91;;;24.35;80.97
12358;BME280;6243;51.244;6.774;2022-07-22T01:34:52;153607.22;;;24.29;80.84
12358;BME280;6243;51.244;6.774;2022-07-22T01:37:19;153620.06;;;24.34;81.06
12358;BME280;6243;51.244;6.774;2022-07-22T01:39:44;153608.50;;;24.29;80.27
12358;BME280;6243;51.244;6.774;2022-07-22T01:42:10;153569.94;;;24.14;81.18
12358;BME280;6243;51.244;6.774;2022-07-22T01:44:35;153594.34;;;24.24;80.92
12358;BME280;6243;51.244;6.774;2022-07-22T01:47:01;153577.66;;;24.17;80.62
12358;BME280;6243;51.244;6.774;2022-07-22T01:49:26;153575.13;;;24.16;80.85
12358;BME280;6243;51.244;6.774;2022-07-22T01:51:52;153546.78;;;24.05;81.64
12358;BME280;6243;51.244;6.774;2022-07-22T01:54:19;153587.94;;;24.21;82.04
12358;BME280;6243;51.244;6.774;2022-07-22T01:56:44;153536.50;;;24.01;82.17
12358;BME280;6243;51.244;6.774;2022-07-22T01:59:10;153595.66;;;24.24;80.97
12358;BME280;6243;51.244;6.774;2022-07-22T02:01:36;153595.66;;;24.24;81.68
12358;BME280;6243;51.244;6.774;2022-07-22T02:04:01;153621.38;;;24.34;79.61
12358;BME280;6243;51.244;6.774;2022-07-22T02:06:26;153600.78;;;24.26;80.45
12358;BME280;6243;51.244;6.774;2022-07-22T02:08:52;153582.81;;;24.19;80.67
12358;BME280;6243;51.244;6.774;2022-07-22T02:11:19;153594.34;;;24.24;80.54
12358;BME280;6243;51.244;6.774;2022-07-22T02:13:44;153571.25;;;24.15;81.67
12358;BME280;6243;51.244;6.774;2022-07-22T02:16:10;153550.72;;;24.07;81.04
12358;BME280;6243;51.244;6.774;2022-07-22T02:18:35;153627.78;;;24.37;79.53
12358;BME280;6243;51.244;6.774;2022-07-22T02:21:01;153600.78;;;24.26;80.04
12358;BME280;6243;51.244;6.774;2022-07-22T02:23:26;153580.25;;;24.18;81.53
12358;BME280;6243;51.244;6.774;2022-07-22T02:25:52;153541.66;;;24.03;81.98
12358;BME280;6243;51.244;6.774;2022-07-22T02:28:19;153604.63;;;24.28;80.44
12358;BME280;6243;51.244;6.774;2022-07-22T02:30:44;153542.94;;;24.04;81.45
12358;BME280;6243;51.244;6.774;2022-07-22T02:33:10;153467.19;;;23.74;84.77
12358;BME280;6243;51.244;6.774;2022-07-22T02:35:35;153521.13;;;23.95;82.05
12358;BME280;6243;51.244;6.774;2022-07-22T02:38:01;153404.28;;;23.49;86.40
12358;BME280;6243;51.244;6.774;2022-07-22T02:40:26;153544.25;;;24.04;81.26
12358;BME280;6243;51.244;6.774;2022-07-22T02:42:52;153531.38;;;23.99;82.09
12358;BME280;6243;51.244;6.774;2022-07-22T02:45:19;153492.88;;;23.84;82.70
12358;BME280;6243;51.244;6.774;2022-07-22T02:47:49;153415.84;;;23.54;84.88
12358;BME280;6243;51.244;6.774;2022-07-22T02:50:15;153433.81;;;23.61;85.28
12358;BME280;6243;51.244;6.774;2022-07-22T02:52:41;153472.31;;;23.76;82.87
12358;BME280;6243;51.244;6.774;2022-07-22T02:55:07;153392.72;;;23.45;86.69
12358;BME280;6243;51.244;6.774;2022-07-22T02:57:32;153462.06;;;23.72;83.52
12358;BME280;6243;51.244;6.774;2022-07-22T02:59:58;153420.97;;;23.56;82.92
12358;BME280;6243;51.244;6.774;2022-07-22T03:02:25;153512.13;;;23.91;81.40
12358;BME280;6243;51.244;6.774;2022-07-22T03:04:51;153415.84;;;23.54;84.18
12358;BME280;6243;51.244;6.774;2022-07-22T03:07:16;153451.78;;;23.68;83.29
12358;BME280;6243;51.244;6.774;2022-07-22T03:09:42;153483.88;;;23.80;82.28
12358;BME280;6243;51.244;6.774;2022-07-22T03:12:08;153454.34;;;23.69;83.07
12358;BME280;6243;51.244;6.774;2022-07-22T03:14:33;153446.66;;;23.66;83.36
12358;BME280;6243;51.244;6.774;2022-07-22T03:16:59;153478.75;;;23.78;81.95
12358;BME280;6243;51.244;6.774;2022-07-22T03:19:25;153456.91;;;23.70;82.62
12358;BME280;6243;51.244;6.774;2022-07-22T03:21:51;153481.31;;;23.79;82.23
12358;BME280;6243;51.244;6.774;2022-07-22T03:24:16;153469.78;;;23.75;82.54
12358;BME280;6243;51.244;6.774;2022-07-22T03:26:42;153441.53;;;23.64;81.51
12358;BME280;6243;51.244;6.774;2022-07-22T03:29:07;153441.53;;;23.64;82.58
12358;BME280;6243;51.244;6.774;2022-07-22T03:31:33;153450.50;;;23.67;82.79
12358;BME280;6243;51.244;6.774;2022-07-22T03:33:58;153467.19;;;23.74;82.24
12358;BME280;6243;51.244;6.774;2022-07-22T03:36:25;153462.06;;;23.72;81.60
12358;BME280;6243;51.244;6.774;2022-07-22T03:38:51;153420.97;;;23.56;82.30
12358;BME280;6243;51.244;6.774;2022-07-22T03:41:16;153417.13;;;23.54;82.97
12358;BME280;6243;51.244;6.774;2022-07-22T03:43:42;153469.78;;;23.75;81.74
12358;BME280;6243;51.244;6.774;2022-07-22T03:46:07;153463.34;;;23.72;81.36
12358;BME280;6243;51.244;6.774;2022-07-22T03:48:33;153410.72;;;23.52;82.20
12358;BME280;6243;51.244;6.774;2022-07-22T03:50:58;153481.31;;;23.79;80.02
12358;BME280;6243;51.244;6.774;2022-07-22T03:53:25;153482.56;;;23.80;81.17
12358;BME280;6243;51.244;6.774;2022-07-22T03:55:51;153491.59;;;23.83;81.08
12358;BME280;6243;51.244;6.774;2022-07-22T03:58:16;153490.28;;;23.83;80.10
12358;BME280;6243;51.244;6.774;2022-07-22T04:00:42;153420.97;;;23.56;81.55
12358;BME280;6243;51.244;6.774;2022-07-22T04:03:11;153449.19;;;23.67;82.26
12358;BME280;6243;51.244;6.774;2022-07-22T04:05:36;153482.56;;;23.80;80.81
12358;BME280;6243;51.244;6.774;2022-07-22T04:08:02;153490.28;;;23.83;80.69
12358;BME280;6243;51.244;6.774;2022-07-22T04:10:29;153483.88;;;23.80;81.99
12358;BME280;6243;51.244;6.774;2022-07-22T04:12:55;153512.13;;;23.91;79.50
12358;BME280;6243;51.244;6.774;2022-07-22T04:15:20;153548.13;;;24.06;78.85
12358;BME280;6243;51.244;6.774;2022-07-22T04:17:46;153532.69;;;23.99;79.16
12358;BME280;6243;51.244;6.774;2022-07-22T04:20:11;153557.13;;;24.09;79.12
12358;BME280;6243;51.244;6.774;2022-07-22T04:22:37;153549.41;;;24.06;79.48
12358;BME280;6243;51.244;6.774;2022-07-22T04:25:03;153495.44;;;23.85;81.77
12358;BME280;6243;51.244;6.774;2022-07-22T04:27:30;153485.16;;;23.81;82.05
12358;BME280;6243;51.244;6.774;2022-07-22T04:29:56;153545.53;;;24.05;80.51
12358;BME280;6243;51.244;6.774;2022-07-22T04:32:22;153539.09;;;24.02;79.30
12358;BME280;6243;51.244;6.774;2022-07-22T04:34:47;153630.34;;;24.38;77.02
12358;BME280;6243;51.244;6.774;2022-07-22T04:37:13;153599.50;;;24.26;77.64
12358;BME280;6243;51.244;6.774;2022-07-22T04:39:38;153584.09;;;24.20;77.07
12358;BME280;6243;51.244;6.774;2022-07-22T04:42:04;153626.50;;;24.36;76.57
12358;BME280;6243;51.244;6.774;2022-07-22T04:44:31;153563.56;;;24.12;77.55
12358;BME280;6243;51.244;6.774;2022-07-22T04:46:56;153532.69;;;23.99;79.92
12358;BME280;6243;51.244;6.774;2022-07-22T04:49:22;153559.69;;;24.10;78.76
12358;BME280;6243;51.244;6.774;2022-07-22T04:51:47;153428.69;;;23.59;81.66
12358;BME280;6243;51.244;6.774;2022-07-22T04:54:13;153487.75;;;23.82;81.40
12358;BME280;6243;51.244;6.774;2022-07-22T04:56:39;153523.66;;;23.96;80.65
12358;BME280;6243;51.244;6.774;2022-07-22T04:59:04;153531.38;;;23.99;80.13
12358;BME280;6243;51.244;6.774;2022-07-22T05:01:31;153492.88;;;23.84;81.04
12358;BME280;6243;51.244;6.774;2022-07-22T05:03:56;153532.69;;;23.99;80.20
12358;BME280;6243;51.244;6.774;2022-07-22T05:06:22;153539.09;;;24.02;78.87
12358;BME280;6243;51.244;6.774;2022-07-22T05:08:47;153553.25;;;24.08;79.20
12358;BME280;6243;51.244;6.774;2022-07-22T05:11:13;153514.69;;;23.92;78.94
12358;BME280;6243;51.244;6.774;2022-07-22T05:13:38;153521.13;;;23.95;78.47
12358;BME280;6243;51.244;6.774;2022-07-22T05:16:05;153535.22;;;24.00;78.23
12358;BME280;6243;51.244;6.774;2022-07-22T05:18:32;153535.22;;;24.00;78.52
12358;BME280;6243;51.244;6.774;2022-07-22T05:20:58;153578.97;;;24.18;76.65
12358;BME280;6243;51.244;6.774;2022-07-22T05:23:23;153474.91;;;23.77;78.46
12358;BME280;6243;51.244;6.774;2022-07-22T05:25:49;153490.28;;;23.83;80.17
12358;BME280;6243;51.244;6.774;2022-07-22T05:28:14;153539.09;;;24.02;79.22
12358;BME280;6243;51.244;6.774;2022-07-22T05:30:40;153500.56;;;23.87;78.58
12358;BME280;6243;51.244;6.774;2022-07-22T05:33:05;153521.13;;;23.95;79.62
12358;BME280;6243;51.244;6.774;2022-07-22T05:35:32;153548.13;;;24.06;79.38
12358;BME280;6243;51.244;6.774;2022-07-22T05:37:57;153504.44;;;23.88;79.55
12358;BME280;6243;51.244;6.774;2022-07-22T05:40:23;153501.84;;;23.87;79.81
12358;BME280;6243;51.244;6.774;2022-07-22T05:42:49;153548.13;;;24.06;78.00
12358;BME280;6243;51.244;6.774;2022-07-22T05:45:14;153516.00;;;23.93;80.05
12358;BME280;6243;51.244;6.774;2022-07-22T05:47:39;153531.38;;;23.99;80.54
12358;BME280;6243;51.244;6.774;2022-07-22T05:50:05;153485.16;;;23.81;81.82
12358;BME280;6243;51.244;6.774;2022-07-22T05:52:35;153535.22;;;24.00;81.92
12358;BME280;6243;51.244;6.774;2022-07-22T05:55:01;153532.69;;;23.99;80.15
12358;BME280;6243;51.244;6.774;2022-07-22T05:57:26;153562.28;;;24.11;79.27
12358;BME280;6243;51.244;6.774;2022-07-22T05:59:52;153559.69;;;24.10;79.41
12358;BME280;6243;51.244;6.774;2022-07-22T06:02:17;153578.97;;;24.18;79.95
12358;BME280;6243;51.244;6.774;2022-07-22T06:04:43;153572.53;;;24.15;79.57
12358;BME280;6243;51.244;6.774;2022-07-22T06:07:08;153573.84;;;24.16;79.85
12358;BME280;6243;51.244;6.774;2022-07-22T06:09:36;153582.81;;;24.19;79.44
12358;BME280;6243;51.244;6.774;2022-07-22T06:12:02;153595.66;;;24.24;78.45
12358;BME280;6243;51.244;6.774;2022-07-22T06:14:27;153595.66;;;24.24;77.63
12358;BME280;6243;51.244;6.774;2022-07-22T06:16:53;153492.88;;;23.84;76.83
12358;BME280;6243;51.244;6.774;2022-07-22T06:19:18;153564.81;;;24.12;77.34
12358;BME280;6243;51.244;6.774;2022-07-22T06:21:44;153576.38;;;24.17;76.54
12358;BME280;6243;51.244;6.774;2022-07-22T06:24:09;153535.22;;;24.00;75.07
12358;BME280;6243;51.244;6.774;2022-07-22T06:26:36;153552.00;;;24.07;74.61
12358;BME280;6243;51.244;6.774;2022-07-22T06:29:02;153585.38;;;24.20;75.63
12358;BME280;6243;51.244;6.774;2022-07-22T06:31:27;153605.91;;;24.28;77.23
12358;BME280;6243;51.244;6.774;2022-07-22T06:33:53;153614.94;;;24.32;73.83
12358;BME280;6243;51.244;6.774;2022-07-22T06:36:18;153602.09;;;24.27;72.35
12358;BME280;6243;51.244;6.774;2022-07-22T06:38:44;153595.66;;;24.24;73.35
12358;BME280;6243;51.244;6.774;2022-07-22T06:41:10;153575.13;;;24.16;72.96
12358;BME280;6243;51.244;6.774;2022-07-22T06:43:36;153607.22;;;24.29;72.57
12358;BME280;6243;51.244;6.774;2022-07-22T06:46:02;153607.22;;;24.29;75.01
12358;BME280;6243;51.244;6.774;2022-07-22T06:48:28;153626.50;;;24.36;74.36
12358;BME280;6243;51.244;6.774;2022-07-22T06:50:53;153616.22;;;24.32;72.88
12358;BME280;6243;51.244;6.774;2022-07-22T06:53:19;153629.03;;;24.37;71.91
12358;BME280;6243;51.244;6.774;2022-07-22T06:55:45;153634.16;;;24.39;72.58
12358;BME280;6243;51.244;6.774;2022-07-22T06:58:10;153675.28;;;24.55;72.30
12358;BME280;6243;51.244;6.774;2022-07-22T07:00:37;153681.72;;;24.58;70.72
12358;BME280;6243;51.244;6.774;2022-07-22T07:03:03;153681.72;;;24.58;70.89
12358;BME280;6243;51.244;6.774;2022-07-22T07:05:28;153683.00;;;24.58;71.24
12358;BME280;6243;51.244;6.774;2022-07-22T07:07:54;153689.44;;;24.61;70.53
12358;BME280;6243;51.244;6.774;2022-07-22T07:10:20;153680.41;;;24.57;70.17
12358;BME280;6243;51.244;6.774;2022-07-22T07:12:45;153690.72;;;24.61;70.17
12358;BME280;6243;51.244;6.774;2022-07-22T07:15:11;153648.31;;;24.45;71.46
12358;BME280;6243;51.244;6.774;2022-07-22T07:17:38;153641.91;;;24.42;69.85
12358;BME280;6243;51.244;6.774;2022-07-22T07:20:05;153657.28;;;24.48;69.74
12358;BME280;6243;51.244;6.774;2022-07-22T07:22:30;153685.59;;;24.59;69.40
12358;BME280;6243;51.244;6.774;2022-07-22T07:24:56;153704.84;;;24.67;69.58
12358;BME280;6243;51.244;6.774;2022-07-22T07:27:22;153711.25;;;24.69;70.34
12358;BME280;6243;51.244;6.774;2022-07-22T07:29:47;153713.84;;;24.71;69.72
12358;BME280;6243;51.244;6.774;2022-07-22T07:32:12;153720.28;;;24.73;69.31
12358;BME280;6243;51.244;6.774;2022-07-22T07:34:39;153733.16;;;24.78;69.13
12358;BME280;6243;51.244;6.774;2022-07-22T07:37:05;153719.00;;;24.73;69.20
12358;BME280;6243;51.244;6.774;2022-07-22T07:39:30;153722.81;;;24.74;69.46
12358;BME280;6243;51.244;6.774;2022-07-22T07:41:56;153645.72;;;24.44;67.86
12358;BME280;6243;51.244;6.774;2022-07-22T07:44:21;153608.50;;;24.29;68.01
12358;BME280;6243;51.244;6.774;2022-07-22T07:46:47;153680.41;;;24.57;66.99
12358;BME280;6243;51.244;6.774;2022-07-22T07:49:12;153630.34;;;24.38;67.73
12358;BME280;6243;51.244;6.774;2022-07-22T07:51:39;153722.81;;;24.74;66.51
12358;BME280;6243;51.244;6.774;2022-07-22T07:54:05;153654.75;;;24.47;67.11
12358;BME280;6243;51.244;6.774;2022-07-22T07:56:30;153652.16;;;24.46;66.36
12358;BME280;6243;51.244;6.774;2022-07-22T07:58:56;153726.75;;;24.76;66.27
12358;BME280;6243;51.244;6.774;2022-07-22T08:01:21;153722.81;;;24.74;67.14
12358;BME280;6243;51.244;6.774;2022-07-22T08:03:47;153659.88;;;24.49;66.97
12358;BME280;6243;51.244;6.774;2022-07-22T08:06:12;153716.41;;;24.72;67.56
12358;BME280;6243;51.244;6.774;2022-07-22T08:08:39;153527.56;;;23.97;68.33
12358;BME280;6243;51.244;6.774;2022-07-22T08:11:05;153594.34;;;24.24;67.40
12358;BME280;6243;51.244;6.774;2022-07-22T08:13:30;153589.22;;;24.22;67.33
12358;BME280;6243;51.244;6.774;2022-07-22T08:15:56;153608.50;;;24.29;66.75
12358;BME280;6243;51.244;6.774;2022-07-22T08:18:21;153576.38;;;24.17;67.45
12358;BME280;6243;51.244;6.774;2022-07-22T08:20:47;153581.50;;;24.19;66.52
12358;BME280;6243;51.244;6.774;2022-07-22T08:23:12;153635.47;;;24.40;66.16
12358;BME280;6243;51.244;6.774;2022-07-22T08:25:39;153803.81;;;25.06;63.91
12358;BME280;6243;51.244;6.774;2022-07-22T08:28:06;153782.00;;;24.97;64.09
12358;BME280;6243;51.244;6.774;2022-07-22T08:30:32;153797.41;;;25.03;62.26
12358;BME280;6243;51.244;6.774;2022-07-22T08:32:58;153848.84;;;25.23;61.52
12358;BME280;6243;51.244;6.774;2022-07-22T08:35:23;153895.13;;;25.42;61.53
12358;BME280;6243;51.244;6.774;2022-07-22T08:37:49;153899.00;;;25.43;60.95
12358;BME280;6243;51.244;6.774;2022-07-22T08:40:16;153780.69;;;24.97;63.50
12358;BME280;6243;51.244;6.774;2022-07-22T08:42:46;153734.44;;;24.79;62.42
12358;BME280;6243;51.244;6.774;2022-07-22T08:45:12;153817.97;;;25.11;62.28
12358;BME280;6243;51.244;6.774;2022-07-22T08:47:38;153744.69;;;24.83;61.72
12358;BME280;6243;51.244;6.774;2022-07-22T08:50:05;153587.94;;;24.21;64.01
12358;BME280;6243;51.244;6.774;2022-07-22T08:52:30;153708.72;;;24.68;63.22
12358;BME280;6243;51.244;6.774;2022-07-22T08:54:56;153734.44;;;24.79;63.43
12358;BME280;6243;51.244;6.774;2022-07-22T08:57:21;153789.72;;;25.00;64.09
12358;BME280;6243;51.244;6.774;2022-07-22T08:59:53;153761.47;;;24.89;62.61
12358;BME280;6243;51.244;6.774;2022-07-22T09:02:20;153789.72;;;25.00;63.19
12358;BME280;6243;51.244;6.774;2022-07-22T09:04:54;153805.13;;;25.06;62.93
12358;BME280;6243;51.244;6.774;2022-07-22T09:07:29;153782.00;;;24.97;60.42
12358;BME280;6243;51.244;6.774;2022-07-22T09:09:55;153864.25;;;25.29;61.06
12358;BME280;6243;51.244;6.774;2022-07-22T09:12:21;153829.56;;;25.16;60.39
12358;BME280;6243;51.244;6.774;2022-07-22T09:14:48;153865.53;;;25.30;61.01
12358;BME280;6243;51.244;6.774;2022-07-22T09:17:28;153819.28;;;25.12;61.63
12358;BME280;6243;51.244;6.774;2022-07-22T09:19:55;153829.56;;;25.16;61.01
12358;BME280;6243;51.244;6.774;2022-07-22T09:22:42;153857.81;;;25.27;59.33
12358;BME280;6243;51.244;6.774;2022-07-22T09:25:23;153811.56;;;25.09;60.49
12358;BME280;6243;51.244;6.774;2022-07-22T09:27:50;153935.00;;;25.57;60.04
12358;BME280;6243;51.244;6.774;2022-07-22T09:30:17;153842.41;;;25.21;59.12
12358;BME280;6243;51.244;6.774;2022-07-22T09:32:44;153806.41;;;25.07;57.73
12358;BME280;6243;51.244;6.774;2022-07-22T09:35:11;153904.13;;;25.45;58.09
12358;BME280;6243;51.244;6.774;2022-07-22T09:37:37;153927.28;;;25.54;58.13
12358;BME280;6243;51.244;6.774;2022-07-22T09:40:12;153821.81;;;25.13;57.86
12358;BME280;6243;51.244;6.774;2022-07-22T09:42:44;153887.38;;;25.38;57.92
12358;BME280;6243;51.244;6.774;2022-07-22T09:45:10;153739.56;;;24.81;58.31
12358;BME280;6243;51.244;6.774;2022-07-22T09:47:36;153893.81;;;25.41;58.31
12358;BME280;6243;51.244;6.774;2022-07-22T09:50:03;153911.88;;;25.48;58.05
12358;BME280;6243;51.244;6.774;2022-07-22T09:52:29;153909.28;;;25.47;57.64
12358;BME280;6243;51.244;6.774;2022-07-22T09:54:55;153931.13;;;25.56;57.16
12358;BME280;6243;51.244;6.774;2022-07-22T09:57:21;153989.03;;;25.78;57.43
12358;BME280;6243;51.244;6.774;2022-07-22T09:59:47;154008.28;;;25.86;56.74
12358;BME280;6243;51.244;6.774;2022-07-22T10:02:14;153959.44;;;25.67;58.00
12358;BME280;6243;51.244;6.774;2022-07-22T10:04:41;154009.56;;;25.86;57.52
12358;BME280;6243;51.244;6.774;2022-07-22T10:07:12;154147.22;;;26.40;56.72
12358;BME280;6243;51.244;6.774;2022-07-22T10:09:38;154156.25;;;26.44;56.77
12358;BME280;6243;51.244;6.774;2022-07-22T10:12:06;154052.03;;;26.03;57.66
12358;BME280;6243;51.244;6.774;2022-07-22T10:14:32;154039.16;;;25.98;57.16
12358;BME280;6243;51.244;6.774;2022-07-22T10:16:59;154136.94;;;26.36;55.56
12358;BME280;6243;51.244;6.774;2022-07-22T10:19:25;154135.63;;;26.36;56.46
12358;BME280;6243;51.244;6.774;2022-07-22T10:21:51;154071.31;;;26.11;55.89
12358;BME280;6243;51.244;6.774;2022-07-22T10:24:17;154216.69;;;26.67;55.08
12358;BME280;6243;51.244;6.774;2022-07-22T10:26:47;154169.13;;;26.49;54.60
12358;BME280;6243;51.244;6.774;2022-07-22T10:29:31;154100.91;;;26.22;55.67
12358;BME280;6243;51.244;6.774;2022-07-22T10:32:27;154104.81;;;26.24;55.41
12358;BME280;6243;51.244;6.774;2022-07-22T10:35:20;154336.41;;;27.14;54.48
12358;BME280;6243;51.244;6.774;2022-07-22T10:37:48;154349.31;;;27.19;52.47
12358;BME280;6243;51.244;6.774;2022-07-22T10:40:17;154393.09;;;27.36;52.56
12358;BME280;6243;51.244;6.774;2022-07-22T10:45:46;154568.22;;;28.05;51.91
12358;BME280;6243;51.244;6.774;2022-07-22T10:48:14;154753.75;;;28.77;50.20
12358;BME280;6243;51.244;6.774;2022-07-22T10:50:42;154859.47;;;29.19;48.98
12358;BME280;6243;51.244;6.774;2022-07-22T10:53:09;154936.81;;;29.49;48.95
12358;BME280;6243;51.244;6.774;2022-07-22T10:55:38;154778.25;;;28.87;48.95
12358;BME280;6243;51.244;6.774;2022-07-22T10:58:41;154893.00;;;29.32;46.81
12358;BME280;6243;51.244;6.774;2022-07-22T11:01:08;154971.59;;;29.63;46.95
12358;BME280;6243;51.244;6.774;2022-07-22T11:03:35;154847.81;;;29.14;46.41
12358;BME280;6243;51.244;6.774;2022-07-22T11:06:13;154974.22;;;29.64;45.97
12358;BME280;6243;51.244;6.774;2022-07-22T11:08:39;155063.19;;;29.98;45.77
12358;BME280;6243;51.244;6.774;2022-07-22T11:11:06;155172.88;;;30.41;44.66
12358;BME280;6243;51.244;6.774;2022-07-22T11:13:32;155298.00;;;30.90;44.41
12358;BME280;6243;51.244;6.774;2022-07-22T11:16:19;155301.91;;;30.92;43.96
12358;BME280;6243;51.244;6.774;2022-07-22T11:18:50;155290.25;;;30.87;43.72
12358;BME280;6243;51.244;6.774;2022-07-22T11:21:17;155187.03;;;30.47;44.22
12358;BME280;6243;51.244;6.774;2022-07-22T11:23:44;155073.53;;;30.02;43.30
12358;BME280;6243;51.244;6.774;2022-07-22T11:26:14;155170.28;;;30.40;43.85
12358;BME280;6243;51.244;6.774;2022-07-22T11:28:41;155375.44;;;31.20;43.49
12358;BME280;6243;51.244;6.774;2022-07-22T11:31:07;155233.47;;;30.65;43.47
12358;BME280;6243;51.244;6.774;2022-07-22T11:33:33;155230.91;;;30.64;43.55
12358;BME280;6243;51.244;6.774;2022-07-22T11:36:03;155339.31;;;31.06;43.58
12358;BME280;6243;51.244;6.774;2022-07-22T11:38:40;155340.59;;;31.07;42.54
12358;BME280;6243;51.244;6.774;2022-07-22T11:41:05;155370.28;;;31.18;41.51
12358;BME280;6243;51.244;6.774;2022-07-22T11:43:39;155372.84;;;31.19;42.34
12358;BME280;6243;51.244;6.774;2022-07-22T11:46:05;155228.31;;;30.63;41.59
12358;BME280;6243;51.244;6.774;2022-07-22T11:48:30;155341.91;;;31.07;42.71
12358;BME280;6243;51.244;6.774;2022-07-22T11:50:59;155456.78;;;31.52;40.30
12358;BME280;6243;51.244;6.774;2022-07-22T11:53:24;155477.47;;;31.60;40.55
12358;BME280;6243;51.244;6.774;2022-07-22T11:55:50;155367.69;;;31.17;40.00
12358;BME280;6243;51.244;6.774;2022-07-22T11:58:15;155534.25;;;31.82;39.87
12358;BME280;6243;51.244;6.774;2022-07-22T12:00:42;155554.88;;;31.90;39.85
12358;BME280;6243;51.244;6.774;2022-07-22T12:03:08;155554.88;;;31.90;40.05
12358;BME280;6243;51.244;6.774;2022-07-22T12:05:34;155593.69;;;32.05;39.70
12358;BME280;6243;51.244;6.774;2022-07-22T12:08:00;155615.63;;;32.14;39.65
12358;BME280;6243;51.244;6.774;2022-07-22T12:10:26;155427.06;;;31.40;40.02
12358;BME280;6243;51.244;6.774;2022-07-22T12:12:52;155556.19;;;31.91;39.48
12358;BME280;6243;51.244;6.774;2022-07-22T12:15:18;155247.66;;;30.70;38.34
12358;BME280;6243;51.244;6.774;2022-07-22T12:17:45;155553.63;;;31.90;38.12
12358;BME280;6243;51.244;6.774;2022-07-22T12:20:11;155640.16;;;32.23;37.87
12358;BME280;6243;51.244;6.774;2022-07-22T12:22:44;155627.25;;;32.18;38.40
12358;BME280;6243;51.244;6.774;2022-07-22T12:25:10;155687.94;;;32.42;38.03
12358;BME280;6243;51.244;6.774;2022-07-22T12:27:36;155690.50;;;32.43;39.44
12358;BME280;6243;51.244;6.774;2022-07-22T12:30:11;155722.84;;;32.56;39.11
12358;BME280;6243;51.244;6.774;2022-07-22T12:32:47;155588.53;;;32.03;39.15
12358;BME280;6243;51.244;6.774;2022-07-22T12:35:14;155465.84;;;31.56;39.65
12358;BME280;6243;51.244;6.774;2022-07-22T12:37:43;155194.78;;;30.50;40.33
12358;BME280;6243;51.244;6.774;2022-07-22T12:40:10;155367.69;;;31.17;40.68
12358;BME280;6243;51.244;6.774;2022-07-22T12:42:37;155508.41;;;31.72;39.63
12358;BME280;6243;51.244;6.774;2022-07-22T12:45:05;155522.63;;;31.78;38.94
12358;BME280;6243;51.244;6.774;2022-07-22T12:47:45;155664.72;;;32.33;38.43
12358;BME280;6243;51.244;6.774;2022-07-22T12:50:21;155587.22;;;32.03;38.56
12358;BME280;6243;51.244;6.774;2022-07-22T12:52:47;155605.31;;;32.10;38.60
12358;BME280;6243;51.244;6.774;2022-07-22T12:55:12;155613.00;;;32.13;38.79
12358;BME280;6243;51.244;6.774;2022-07-22T12:57:38;155658.25;;;32.31;38.44
12358;BME280;6243;51.244;6.774;2022-07-22T13:00:04;155504.56;;;31.71;38.90